Rachal, Texas
Current Conditions -  °F | °C
As of 8:15 AM on Thursday 27 Nov 2014 (Local Time) from KBKS Reporting Station
Overcast Overcast  
Wind Chill: 47°   Ceiling: 100
Heat Index: 47°   Visibility: 3mi
Dew Point: 45°   Wind: 3mph
Humidity: 93%   Direction: 10°N
Pressure: 30.43"   Gusts: NA
Location:  26.9826°N, 98.212°W
Report Text: KBKS 271415Z AUTO 01003KT 3SM OVC001 08/07 A3043 RMK AO1 T00810071
Loading
Personal Weather Stations






























Interactive Weather Map New forecast layout! Learn more

10-Day Weather Forecast

Advertisements
Track Severe Weather on mobile